createdAt,value
2022-11-03T00:01:42.367Z,3.60
2022-11-03T00:04:11.362Z,3.70
2022-11-03T00:06:38.150Z,3.70
2022-11-03T00:09:06.121Z,3.60
2022-11-03T00:11:34.562Z,3.60
2022-11-03T00:14:00.800Z,3.60
2022-11-03T00:16:27.008Z,3.50
2022-11-03T00:18:54.285Z,3.50
2022-11-03T00:21:20.610Z,3.50
2022-11-03T00:23:46.744Z,3.40
2022-11-03T00:26:20.732Z,3.40
2022-11-03T00:28:51.276Z,3.30
2022-11-03T00:31:25.055Z,3.20
2022-11-03T00:33:51.405Z,3.30
2022-11-03T00:36:22.143Z,3.40
2022-11-03T00:38:48.377Z,3.40
2022-11-03T00:41:18.205Z,3.40
2022-11-03T00:43:44.412Z,3.30
2022-11-03T00:46:10.610Z,3.30
2022-11-03T00:48:36.942Z,3.20
2022-11-03T00:51:23.662Z,3.20
2022-11-03T00:54:00.904Z,3.10
2022-11-03T00:56:31.983Z,3.00
2022-11-03T00:58:58.733Z,2.90
2022-11-03T01:01:32.327Z,2.90
2022-11-03T01:04:17.347Z,2.90
2022-11-03T01:06:50.856Z,3.00
2022-11-03T01:09:30.838Z,3.00
2022-11-03T01:12:11.188Z,2.90
2022-11-03T01:14:42.201Z,2.90
2022-11-03T01:17:10.608Z,2.90
2022-11-03T01:19:36.838Z,2.80
2022-11-03T01:22:06.528Z,2.80
2022-11-03T01:24:37.279Z,2.80
2022-11-03T01:27:03.534Z,2.80
2022-11-03T01:29:30.567Z,2.80
2022-11-03T01:31:57.787Z,2.70
2022-11-03T01:34:26.697Z,2.70
2022-11-03T01:36:52.834Z,2.70
2022-11-03T01:39:19.241Z,2.60
2022-11-03T01:41:47.237Z,2.50
2022-11-03T01:44:25.782Z,2.50
2022-11-03T01:47:15.104Z,2.40
2022-11-03T01:50:24.817Z,2.30
2022-11-03T01:52:53.026Z,2.30
2022-11-03T01:55:21.529Z,2.30
2022-11-03T01:58:25.220Z,2.30
2022-11-03T02:00:53.290Z,2.30
2022-11-03T02:03:19.737Z,2.20
2022-11-03T02:05:45.948Z,2.30
2022-11-03T02:08:18.828Z,2.20
2022-11-03T02:10:48.121Z,2.20
2022-11-03T02:13:21.767Z,2.20
2022-11-03T02:15:49.382Z,2.20
2022-11-03T02:18:16.818Z,2.30
2022-11-03T02:20:43.016Z,2.40
2022-11-03T02:23:20.783Z,2.40
2022-11-03T02:25:59.379Z,2.30
2022-11-03T02:28:30.872Z,2.30
2022-11-03T02:31:11.744Z,2.20
2022-11-03T02:34:18.789Z,2.20
2022-11-03T02:36:49.490Z,2.30
2022-11-03T02:39:36.365Z,2.20
2022-11-03T02:42:02.661Z,2.40
2022-11-03T02:44:28.884Z,2.40
2022-11-03T02:47:00.539Z,2.30
2022-11-03T02:49:27.073Z,2.30
2022-11-03T02:52:00.775Z,2.40
2022-11-03T02:54:29.562Z,2.40
2022-11-03T02:57:01.628Z,2.40
2022-11-03T02:59:30.027Z,2.30
2022-11-03T03:02:03.300Z,2.50
2022-11-03T03:04:33.002Z,2.50
2022-11-03T03:07:03.663Z,2.50
2022-11-03T03:09:38.682Z,4.00
2022-11-03T03:12:05.439Z,2.20
2022-11-03T03:14:33.833Z,2.20
2022-11-03T03:17:19.221Z,2.10
2022-11-03T03:26:35.612Z,2.20
2022-11-03T03:29:03.960Z,2.30
2022-11-03T03:31:32.206Z,2.30
2022-11-03T03:34:04.263Z,2.30
2022-11-03T03:36:37.853Z,2.40
2022-11-03T03:39:04.159Z,2.40
2022-11-03T03:41:32.222Z,2.40
2022-11-03T03:44:00.649Z,2.20
2022-11-03T03:46:28.912Z,2.10
2022-11-03T03:48:55.417Z,2.10
2022-11-03T03:51:23.606Z,2.10
2022-11-03T03:53:51.667Z,2.00
2022-11-03T03:57:40.787Z,2.10
2022-11-03T04:00:11.206Z,2.10
2022-11-03T04:02:37.486Z,2.00
2022-11-03T04:05:04.919Z,1.90
2022-11-03T04:07:49.192Z,1.80
2022-11-03T04:10:17.201Z,1.90
2022-11-03T04:13:02.225Z,1.80
2022-11-03T04:15:47.194Z,1.80
2022-11-03T04:18:32.800Z,1.80
2022-11-03T04:21:17.362Z,1.90
2022-11-03T04:23:43.559Z,1.90
2022-11-03T04:26:14.495Z,1.90
2022-11-03T04:28:41.755Z,2.00
2022-11-03T04:31:15.346Z,2.20
2022-11-03T04:33:41.627Z,2.10
2022-11-03T04:36:26.623Z,2.20
2022-11-03T04:38:52.884Z,2.20
2022-11-03T04:41:32.875Z,2.30
2022-11-03T04:43:59.209Z,2.30
2022-11-03T04:46:28.801Z,2.30
2022-11-03T04:48:59.020Z,2.40
2022-11-03T04:51:28.580Z,2.40
2022-11-03T04:53:58.613Z,2.40
2022-11-03T04:56:25.139Z,2.30
2022-11-03T04:58:51.971Z,2.20
2022-11-03T05:01:24.270Z,2.30
2022-11-03T05:03:53.080Z,2.20
2022-11-03T05:06:23.764Z,2.20
2022-11-03T05:08:54.991Z,2.30
2022-11-03T05:11:38.872Z,2.20
2022-11-03T05:14:22.297Z,2.20
2022-11-03T05:16:49.994Z,2.30
2022-11-03T05:19:41.871Z,2.40
2022-11-03T05:22:19.104Z,2.20
2022-11-03T05:24:45.281Z,2.30
2022-11-03T05:27:15.912Z,2.40
2022-11-03T05:29:42.141Z,2.50
2022-11-03T05:32:14.000Z,2.50
2022-11-03T05:34:45.057Z,2.50
2022-11-03T05:37:26.705Z,2.50
2022-11-03T05:40:22.565Z,2.40
2022-11-03T05:42:53.485Z,2.40
2022-11-03T05:45:26.580Z,2.40
2022-11-03T05:47:53.823Z,2.40
2022-11-03T05:50:24.922Z,2.30
2022-11-03T05:53:37.997Z,2.30
2022-11-03T05:56:05.267Z,2.40
2022-11-03T05:58:38.638Z,2.50
2022-11-03T06:01:29.810Z,2.60
2022-11-03T06:04:00.675Z,2.70
2022-11-03T06:06:34.220Z,2.80
2022-11-03T06:09:09.833Z,3.00
2022-11-03T06:11:36.887Z,4.40
2022-11-03T06:14:24.016Z,2.80
2022-11-03T06:17:07.624Z,2.80
2022-11-03T06:19:41.855Z,2.80
2022-11-03T06:22:41.611Z,3.20
2022-11-03T06:25:53.412Z,3.50
2022-11-03T06:28:31.991Z,3.60
2022-11-03T06:30:58.307Z,3.90
2022-11-03T06:33:28.782Z,3.90
2022-11-03T06:37:54.562Z,4.50
2022-11-03T06:40:34.007Z,4.70
2022-11-03T06:43:05.318Z,4.50
2022-11-03T06:45:31.799Z,6.50
2022-11-03T06:48:10.434Z,4.50
2022-11-03T06:50:39.820Z,4.50
2022-11-03T06:53:10.311Z,4.60
2022-11-03T06:55:37.968Z,4.70
2022-11-03T06:58:24.695Z,4.90
2022-11-03T07:00:51.926Z,5.00
2022-11-03T07:03:30.749Z,5.00
2022-11-03T07:06:42.691Z,5.20
2022-11-03T07:09:15.904Z,5.70
2022-11-03T07:11:54.166Z,5.80
2022-11-03T07:14:33.584Z,5.60
2022-11-03T07:17:04.539Z,5.70
2022-11-03T07:19:36.567Z,5.80
2022-11-03T07:22:04.376Z,6.20
2022-11-03T07:24:36.129Z,6.40
2022-11-03T07:27:29.056Z,6.50
2022-11-03T07:30:24.136Z,7.00
2022-11-03T07:32:54.004Z,7.40
2022-11-03T07:36:00.421Z,7.40
2022-11-03T07:38:39.824Z,7.50
2022-11-03T07:41:08.331Z,7.50
2022-11-03T07:43:35.438Z,8.00
2022-11-03T07:46:02.732Z,8.80
2022-11-03T07:48:47.254Z,9.30
2022-11-03T07:51:40.494Z,9.60
2022-11-03T07:54:24.236Z,9.50
2022-11-03T07:56:53.022Z,9.80
2022-11-03T07:59:21.711Z,10.10
2022-11-03T08:01:50.673Z,10.60
2022-11-03T08:04:21.773Z,10.20
2022-11-03T08:06:48.304Z,11.40
2022-11-03T08:09:14.695Z,12.10
2022-11-03T08:11:40.937Z,12.20
2022-11-03T08:14:07.632Z,12.30
2022-11-03T08:16:33.894Z,12.00
2022-11-03T08:19:00.135Z,12.30
2022-11-03T08:21:26.299Z,12.60
2022-11-03T08:23:52.557Z,12.40
2022-11-03T08:26:18.830Z,12.60
2022-11-03T08:28:44.983Z,12.60
2022-11-03T08:31:13.149Z,12.80
2022-11-03T08:33:39.896Z,12.80
2022-11-03T08:36:07.811Z,12.90
2022-11-03T08:38:35.088Z,12.80
2022-11-03T08:41:01.605Z,13.00
2022-11-03T08:43:27.837Z,13.30
2022-11-03T08:45:55.211Z,13.60
2022-11-03T08:48:21.968Z,13.80
2022-11-03T08:50:49.909Z,13.50
2022-11-03T08:53:16.992Z,13.70
2022-11-03T08:55:43.596Z,13.50
2022-11-03T08:58:10.088Z,13.60
2022-11-03T09:00:40.829Z,13.70
2022-11-03T09:03:07.557Z,13.90
2022-11-03T09:05:34.853Z,13.90
2022-11-03T09:10:57.187Z,13.80
2022-11-03T09:13:23.520Z,13.90
2022-11-03T09:15:49.764Z,14.00
2022-11-03T09:18:15.973Z,14.50
2022-11-03T09:20:42.493Z,14.70
2022-11-03T09:23:08.840Z,15.10
2022-11-03T09:25:35.165Z,14.90
2022-11-03T09:28:01.392Z,15.40
2022-11-03T09:30:28.643Z,15.50
2022-11-03T09:32:55.711Z,15.40
2022-11-03T09:35:21.923Z,15.30
2022-11-03T09:37:48.423Z,15.50
2022-11-03T09:40:14.785Z,15.90
2022-11-03T09:42:41.011Z,16.50
2022-11-03T09:45:08.383Z,16.50
2022-11-03T09:47:39.646Z,16.50
2022-11-03T09:50:08.249Z,16.20
2022-11-03T09:52:35.571Z,16.20
2022-11-03T09:55:01.876Z,16.10
2022-11-03T09:57:28.108Z,15.10
2022-11-03T09:59:54.328Z,15.00
2022-11-03T10:02:30.561Z,14.80
2022-11-03T10:04:59.326Z,14.60
2022-11-03T10:07:27.258Z,14.60
2022-11-03T10:09:53.779Z,14.60
2022-11-03T10:12:20.976Z,14.60
2022-11-03T10:14:47.274Z,14.60
2022-11-03T10:17:29.103Z,14.60
2022-11-03T10:19:56.182Z,14.50
2022-11-03T10:22:22.436Z,14.40
2022-11-03T10:24:51.316Z,14.50
2022-11-03T10:27:28.511Z,14.50
2022-11-03T10:30:06.821Z,14.50
2022-11-03T10:32:34.169Z,14.30
2022-11-03T10:35:00.543Z,14.30
2022-11-03T10:37:26.835Z,14.30
2022-11-03T10:39:54.116Z,14.70
2022-11-03T10:42:34.905Z,14.70
2022-11-03T10:47:39.594Z,14.40
2022-11-03T10:50:25.894Z,14.80
2022-11-03T10:52:53.148Z,14.90
2022-11-03T10:55:23.879Z,15.30
2022-11-03T10:57:53.195Z,15.30
2022-11-03T11:00:19.913Z,15.40
2022-11-03T11:02:46.958Z,15.60
2022-11-03T11:05:33.125Z,15.70
2022-11-03T11:07:59.403Z,15.80
2022-11-03T11:10:30.829Z,15.90
2022-11-03T11:14:16.317Z,15.80
2022-11-03T11:16:52.933Z,16.10
2022-11-03T11:19:20.844Z,16.20
2022-11-03T11:22:02.957Z,15.90
2022-11-03T11:28:08.416Z,15.80
2022-11-03T11:30:56.132Z,15.60
2022-11-03T11:33:23.707Z,15.70
2022-11-03T11:36:19.422Z,15.80
2022-11-03T11:39:04.955Z,15.80
2022-11-03T11:42:22.565Z,15.90
2022-11-03T11:45:02.962Z,15.90
2022-11-03T11:47:54.114Z,15.50
2022-11-03T11:50:23.040Z,15.60
2022-11-03T11:54:09.928Z,15.60
2022-11-03T11:56:44.743Z,15.50
2022-11-03T11:59:25.565Z,15.50
2022-11-03T12:01:56.992Z,15.50
2022-11-03T12:04:33.208Z,15.50
2022-11-03T12:07:00.461Z,15.50
2022-11-03T12:09:27.090Z,15.70
2022-11-03T12:12:04.995Z,15.70
2022-11-03T12:14:37.225Z,15.70
2022-11-03T12:20:43.163Z,15.80
2022-11-03T12:23:10.414Z,15.70
2022-11-03T12:25:36.672Z,15.60
2022-11-03T12:28:05.120Z,15.60
2022-11-03T12:30:34.373Z,15.60
2022-11-03T12:33:04.969Z,15.80
2022-11-03T12:35:31.897Z,15.90
2022-11-03T12:37:58.638Z,15.60
2022-11-03T12:40:26.800Z,15.60
2022-11-03T12:42:53.555Z,15.30
2022-11-03T12:45:20.713Z,15.30
2022-11-03T12:47:46.920Z,15.40
2022-11-03T12:50:13.270Z,15.40
2022-11-03T12:52:39.514Z,15.10
2022-11-03T12:55:06.505Z,15.00
2022-11-03T12:57:32.955Z,15.10
2022-11-03T12:59:59.189Z,15.10
2022-11-03T13:02:26.188Z,14.80
2022-11-03T13:04:52.761Z,14.90
2022-11-03T13:07:25.627Z,15.00
2022-11-03T13:09:54.183Z,15.10
2022-11-03T13:12:34.738Z,15.30
2022-11-03T13:15:03.708Z,15.20
2022-11-03T13:17:35.949Z,15.00
2022-11-03T13:20:13.867Z,15.00
2022-11-03T13:22:40.282Z,15.20
2022-11-03T13:25:09.307Z,15.30
2022-11-03T13:27:38.129Z,15.10
2022-11-03T13:30:06.590Z,15.00
2022-11-03T13:32:33.390Z,14.80
2022-11-03T13:34:59.717Z,14.80
2022-11-03T13:37:26.090Z,14.80
2022-11-03T13:39:52.595Z,14.70
2022-11-03T13:42:18.834Z,14.60
2022-11-03T13:44:47.167Z,14.50
2022-11-03T13:47:13.994Z,14.30
2022-11-03T13:52:37.509Z,14.00
2022-11-03T14:00:57.392Z,13.60
2022-11-03T14:06:20.497Z,13.10
2022-11-03T14:08:47.840Z,12.90
2022-11-03T14:11:33.435Z,12.80
2022-11-03T14:13:59.768Z,12.70
2022-11-03T14:16:26.053Z,12.50
2022-11-03T14:18:52.686Z,12.40
2022-11-03T14:21:20.335Z,12.30
2022-11-03T14:23:48.157Z,12.20
2022-11-03T14:26:23.610Z,12.20
2022-11-03T14:29:07.336Z,12.20
2022-11-03T14:31:34.384Z,12.10
2022-11-03T14:34:00.712Z,12.00
2022-11-03T14:36:27.172Z,12.00
2022-11-03T14:38:54.843Z,11.90
2022-11-03T14:41:39.740Z,11.80
2022-11-03T14:44:06.408Z,11.80
2022-11-03T14:46:32.983Z,11.60
2022-11-03T14:49:01.753Z,11.50
2022-11-03T14:51:28.728Z,11.40
2022-11-03T14:53:57.305Z,11.40
2022-11-03T14:56:23.942Z,11.30
2022-11-03T14:58:50.333Z,11.20
2022-11-03T15:01:17.360Z,11.10
2022-11-03T15:03:43.721Z,10.90
2022-11-03T15:06:10.505Z,10.80
2022-11-03T15:08:36.892Z,10.70
2022-11-03T15:11:04.805Z,10.60
2022-11-03T15:13:31.793Z,10.60
2022-11-03T15:15:58.416Z,10.50
2022-11-03T15:18:25.126Z,10.70
2022-11-03T15:20:51.917Z,10.70
2022-11-03T15:26:14.374Z,10.70
2022-11-03T15:28:42.969Z,10.80
2022-11-03T15:31:09.148Z,10.70
2022-11-03T15:33:36.457Z,10.60
2022-11-03T15:36:03.916Z,10.60
2022-11-03T15:38:30.719Z,10.60
2022-11-03T15:41:14.873Z,10.50
2022-11-03T15:43:45.598Z,10.40
2022-11-03T15:46:13.789Z,10.40
2022-11-03T15:48:40.518Z,10.40
2022-11-03T15:51:06.809Z,10.40
2022-11-03T15:53:33.172Z,10.30
2022-11-03T15:55:59.434Z,10.30
2022-11-03T15:58:25.765Z,10.40
2022-11-03T16:00:52.108Z,10.40
2022-11-03T16:03:18.864Z,10.40
2022-11-03T16:05:46.484Z,10.50
2022-11-03T16:08:12.817Z,10.70
2022-11-03T16:10:45.921Z,10.60
2022-11-03T16:13:16.308Z,10.60
2022-11-03T16:15:42.446Z,10.60
2022-11-03T16:18:09.441Z,10.50
2022-11-03T16:20:36.008Z,10.50
2022-11-03T16:23:02.311Z,10.70
2022-11-03T16:25:28.611Z,10.50
2022-11-03T16:27:55.203Z,10.60
2022-11-03T16:30:22.069Z,10.60
2022-11-03T16:32:52.376Z,10.50
2022-11-03T16:35:20.460Z,10.50
2022-11-03T16:37:47.151Z,10.50
2022-11-03T16:40:17.960Z,10.30
2022-11-03T16:42:46.203Z,10.10
2022-11-03T16:45:19.990Z,10.10
2022-11-03T16:47:46.738Z,10.00
2022-11-03T16:50:14.000Z,9.80
2022-11-03T16:52:40.202Z,9.70
2022-11-03T16:55:07.870Z,9.60
2022-11-03T16:57:34.309Z,9.50
2022-11-03T17:00:00.917Z,10.10
2022-11-03T17:02:28.350Z,9.30
2022-11-03T17:04:56.599Z,9.20
2022-11-03T17:07:23.945Z,9.10
2022-11-03T17:09:50.460Z,9.00
2022-11-03T17:12:17.181Z,9.00
2022-11-03T17:14:44.022Z,8.90
2022-11-03T17:17:10.265Z,8.90
2022-11-03T17:19:36.499Z,8.80
2022-11-03T17:22:02.765Z,8.80
2022-11-03T17:24:29.055Z,8.70
2022-11-03T17:28:00.305Z,8.60
2022-11-03T17:30:28.167Z,8.50
2022-11-03T17:33:01.838Z,8.40
2022-11-03T17:35:38.913Z,8.40
2022-11-03T17:38:08.247Z,8.30
2022-11-03T17:40:34.606Z,8.30
2022-11-03T17:43:00.809Z,8.30
2022-11-03T17:45:28.509Z,8.20
2022-11-03T17:47:54.903Z,8.20
2022-11-03T17:50:25.740Z,8.10
2022-11-03T17:52:52.499Z,8.10
2022-11-03T17:55:29.315Z,8.10
2022-11-03T17:57:59.678Z,8.10
2022-11-03T18:00:26.109Z,8.00
2022-11-03T18:02:52.264Z,8.00
2022-11-03T18:05:29.671Z,8.00
2022-11-03T18:07:58.924Z,7.90
2022-11-03T18:10:29.384Z,7.80
2022-11-03T18:13:17.808Z,7.80
2022-11-03T18:16:44.480Z,7.80
2022-11-03T18:19:15.024Z,7.80
2022-11-03T18:21:41.298Z,7.80
2022-11-03T18:24:12.041Z,7.70
2022-11-03T18:26:38.988Z,7.80
2022-11-03T18:29:05.189Z,7.80
2022-11-03T18:31:38.829Z,7.80
2022-11-03T18:34:11.049Z,7.70
2022-11-03T18:36:37.712Z,7.70
2022-11-03T18:39:04.147Z,7.80
2022-11-03T18:41:39.995Z,7.80
2022-11-03T18:44:29.134Z,7.80
2022-11-03T18:46:55.684Z,7.80
2022-11-03T18:49:22.875Z,7.80
2022-11-03T18:52:02.163Z,7.80
2022-11-03T18:54:30.076Z,7.70
2022-11-03T18:56:56.860Z,7.60
2022-11-03T18:59:27.514Z,7.60
2022-11-03T19:01:55.466Z,7.60
2022-11-03T19:04:21.817Z,7.60
2022-11-03T19:06:49.281Z,7.50
2022-11-03T19:09:19.208Z,7.60
2022-11-03T19:11:46.080Z,7.60
2022-11-03T19:14:33.097Z,7.50
2022-11-03T19:19:58.073Z,7.50
2022-11-03T19:22:24.597Z,7.50
2022-11-03T19:24:51.247Z,7.70
2022-11-03T19:27:23.390Z,7.90
2022-11-03T19:29:50.035Z,7.90
2022-11-03T19:32:22.919Z,7.90
2022-11-03T19:35:06.538Z,7.80
2022-11-03T19:37:35.742Z,7.80
2022-11-03T19:40:09.672Z,7.90
2022-11-03T19:42:37.101Z,7.80
2022-11-03T19:45:06.985Z,7.80
2022-11-03T19:47:37.169Z,7.80
2022-11-03T19:50:05.711Z,7.80
2022-11-03T19:52:39.498Z,7.80
2022-11-03T19:55:09.865Z,7.80
2022-11-03T19:57:37.944Z,7.90
2022-11-03T20:00:22.806Z,7.90
2022-11-03T20:03:02.970Z,8.00
2022-11-03T20:05:30.974Z,8.20
2022-11-03T20:08:03.835Z,8.10
2022-11-03T20:10:33.341Z,8.10
2022-11-03T20:13:19.425Z,8.10
2022-11-03T20:15:49.285Z,8.20
2022-11-03T20:18:16.984Z,8.20
2022-11-03T20:20:45.647Z,8.20
2022-11-03T20:23:28.074Z,8.20
2022-11-03T20:25:55.424Z,8.20
2022-11-03T20:28:24.561Z,8.20
2022-11-03T20:30:53.081Z,8.20
2022-11-03T20:33:20.841Z,8.20
2022-11-03T20:35:47.502Z,8.20
2022-11-03T20:38:15.060Z,8.40
2022-11-03T20:40:42.551Z,8.50
2022-11-03T20:44:14.130Z,8.40
2022-11-03T20:46:42.055Z,8.30
2022-11-03T20:49:09.043Z,8.30
2022-11-03T20:51:38.487Z,8.30
2022-11-03T20:54:17.353Z,8.30
2022-11-03T20:56:44.241Z,10.40
2022-11-03T20:59:12.602Z,8.20
2022-11-03T21:01:39.705Z,8.20
2022-11-03T21:04:10.062Z,8.10
2022-11-03T21:06:37.322Z,8.10
2022-11-03T21:09:05.659Z,8.00
2022-11-03T21:11:36.333Z,7.90
2022-11-03T21:14:28.336Z,7.80
2022-11-03T21:17:14.824Z,7.80
2022-11-03T21:20:02.274Z,7.80
2022-11-03T21:25:31.088Z,7.80
2022-11-03T21:27:57.269Z,7.80
2022-11-03T21:30:24.437Z,7.90
2022-11-03T21:32:50.678Z,8.00
2022-11-03T21:35:18.645Z,8.20
2022-11-03T21:37:45.190Z,8.20
2022-11-03T21:40:12.524Z,8.30
2022-11-03T21:42:58.107Z,8.40
2022-11-03T21:45:26.051Z,9.80
2022-11-03T21:48:13.863Z,8.30
2022-11-03T21:50:41.999Z,8.40
2022-11-03T21:53:08.587Z,8.50
2022-11-03T21:55:35.585Z,8.50
2022-11-03T21:58:02.395Z,8.50
2022-11-03T22:00:29.051Z,9.90
2022-11-03T22:02:55.938Z,8.50
2022-11-03T22:05:23.792Z,8.50
2022-11-03T22:07:52.086Z,8.60
2022-11-03T22:10:19.956Z,8.60
2022-11-03T22:12:48.225Z,8.70
2022-11-03T22:18:46.934Z,8.70
2022-11-03T22:21:33.021Z,8.80
2022-11-03T22:24:17.883Z,9.20
2022-11-03T22:26:56.296Z,9.30
2022-11-03T22:29:41.162Z,9.40
2022-11-03T22:32:14.357Z,9.60
2022-11-03T22:34:59.020Z,9.60
2022-11-03T22:37:25.340Z,9.70
2022-11-03T22:40:10.309Z,9.80
2022-11-03T22:42:55.169Z,9.80
2022-11-03T22:45:43.868Z,9.90
2022-11-03T22:48:12.108Z,9.80
2022-11-03T22:50:38.694Z,9.80
2022-11-03T22:54:09.709Z,9.80
2022-11-03T22:56:36.063Z,9.80
2022-11-03T22:59:03.756Z,9.80
2022-11-03T23:01:30.300Z,9.90
2022-11-03T23:03:57.363Z,9.90
2022-11-03T23:06:25.109Z,9.90
2022-11-03T23:08:52.309Z,9.90
2022-11-03T23:11:26.023Z,8.70
2022-11-03T23:14:13.808Z,10.00
2022-11-03T23:16:42.384Z,10.10
2022-11-03T23:19:31.654Z,10.10
2022-11-03T23:21:57.896Z,10.00
2022-11-03T23:24:45.372Z,10.10
2022-11-03T23:27:12.821Z,10.10
2022-11-03T23:29:39.499Z,10.10
2022-11-03T23:32:05.978Z,10.10
2022-11-03T23:34:34.312Z,10.00
2022-11-03T23:37:00.489Z,10.10
2022-11-03T23:39:26.767Z,10.00
2022-11-03T23:41:52.971Z,10.10
2022-11-03T23:44:19.270Z,10.10
2022-11-03T23:47:04.181Z,10.10
2022-11-03T23:49:31.426Z,10.10
2022-11-03T23:51:57.665Z,10.10
2022-11-03T23:54:23.904Z,10.00
2022-11-03T23:57:08.770Z,10.00
2022-11-03T23:59:35.710Z,9.90
